Terminal Aerodrome Forecast
Issued by NWS Blacksburg, VA

Current Version | Previous Version | Text Only | Print | Product List | Glossary Off
Versions: 1 2 3 4 5 6 7 8 9 10 11 12 13 14 15 16 17 18 19 20 21 22 23 24 25 26 27 28 29 30 31 32 33 34 35 36 37 38 39 40 41

033
FTUS41 KRNK 041730
TAFBLF
TAF
KBLF 041730Z 0418/0518 12005KT P6SM VCSH SCT035 OVC060
     FM041900 15006KT 6SM -RA BR OVC035
      TEMPO 0420/0424 4SM -RA BR OVC025
     FM050000 16007KT 2SM -RA BR OVC015
     FM050700 20005KT 5SM -RA BR OVC010
     FM050900 27008KT 5SM BR OVC007
     FM051300 30008KT P6SM OVC020
     FM051600 31008KT P6SM SCT020 BKN250=

USA.gov is the U.S. government's official web portal to all federal, state and local government web resources and services.